sensor_id;sensor_type;location;lat;lon;timestamp;P1;durP1;ratioP1;P2;durP2;ratioP2
24102;SDS011;12278;53.058;9.028;2022-12-20T00:00:15;7.60;;;5.60;;
24102;SDS011;12278;53.058;9.028;2022-12-20T00:04:16;7.77;;;5.90;;
24102;SDS011;12278;53.058;9.028;2022-12-20T00:08:17;7.53;;;6.37;;
24102;SDS011;12278;53.058;9.028;2022-12-20T00:12:18;9.00;;;6.30;;
24102;SDS011;12278;53.058;9.028;2022-12-20T00:16:19;7.87;;;5.87;;
24102;SDS011;12278;53.058;9.028;2022-12-20T00:20:21;8.57;;;6.33;;
24102;SDS011;12278;53.058;9.028;2022-12-20T00:24:22;7.83;;;5.90;;
24102;SDS011;12278;53.058;9.028;2022-12-20T00:28:23;6.23;;;5.60;;
24102;SDS011;12278;53.058;9.028;2022-12-20T00:32:23;8.13;;;5.93;;
24102;SDS011;12278;53.058;9.028;2022-12-20T00:36:25;6.33;;;5.43;;
24102;SDS011;12278;53.058;9.028;2022-12-20T00:40:27;7.50;;;5.23;;
24102;SDS011;12278;53.058;9.028;2022-12-20T00:44:28;7.53;;;5.50;;
24102;SDS011;12278;53.058;9.028;2022-12-20T00:48:29;7.23;;;5.83;;
24102;SDS011;12278;53.058;9.028;2022-12-20T00:52:30;7.37;;;5.67;;
24102;SDS011;12278;53.058;9.028;2022-12-20T00:56:31;7.00;;;5.83;;
24102;SDS011;12278;53.058;9.028;2022-12-20T01:00:31;9.03;;;5.13;;
24102;SDS011;12278;53.058;9.028;2022-12-20T01:04:32;7.87;;;5.80;;
24102;SDS011;12278;53.058;9.028;2022-12-20T01:08:33;8.43;;;5.80;;
24102;SDS011;12278;53.058;9.028;2022-12-20T01:12:33;9.57;;;5.60;;
24102;SDS011;12278;53.058;9.028;2022-12-20T01:16:36;6.97;;;4.73;;
24102;SDS011;12278;53.058;9.028;2022-12-20T01:20:38;8.63;;;5.97;;
24102;SDS011;12278;53.058;9.028;2022-12-20T01:24:39;6.90;;;5.50;;
24102;SDS011;12278;53.058;9.028;2022-12-20T01:28:40;7.40;;;5.83;;
24102;SDS011;12278;53.058;9.028;2022-12-20T01:32:42;8.77;;;5.73;;
24102;SDS011;12278;53.058;9.028;2022-12-20T01:36:43;6.53;;;5.27;;
24102;SDS011;12278;53.058;9.028;2022-12-20T01:40:45;5.60;;;4.93;;
24102;SDS011;12278;53.058;9.028;2022-12-20T01:44:54;7.20;;;5.53;;
24102;SDS011;12278;53.058;9.028;2022-12-20T01:49:04;6.93;;;5.40;;
24102;SDS011;12278;53.058;9.028;2022-12-20T01:53:13;5.63;;;4.90;;
24102;SDS011;12278;53.058;9.028;2022-12-20T02:01:38;7.23;;;5.07;;
24102;SDS011;12278;53.058;9.028;2022-12-20T02:05:42;7.73;;;5.30;;
24102;SDS011;12278;53.058;9.028;2022-12-20T02:09:44;5.13;;;4.63;;
24102;SDS011;12278;53.058;9.028;2022-12-20T02:18:00;4.40;;;4.00;;
24102;SDS011;12278;53.058;9.028;2022-12-20T02:22:15;6.47;;;5.17;;
24102;SDS011;12278;53.058;9.028;2022-12-20T02:31:07;8.90;;;5.23;;
24102;SDS011;12278;53.058;9.028;2022-12-20T02:35:12;5.93;;;4.53;;
24102;SDS011;12278;53.058;9.028;2022-12-20T02:39:17;6.77;;;4.80;;
24102;SDS011;12278;53.058;9.028;2022-12-20T02:43:18;7.43;;;6.03;;
24102;SDS011;12278;53.058;9.028;2022-12-20T02:51:49;6.67;;;4.83;;
24102;SDS011;12278;53.058;9.028;2022-12-20T03:00:02;8.50;;;4.47;;
24102;SDS011;12278;53.058;9.028;2022-12-20T03:04:21;9.37;;;4.57;;
24102;SDS011;12278;53.058;9.028;2022-12-20T03:08:25;5.83;;;4.53;;
24102;SDS011;12278;53.058;9.028;2022-12-20T03:12:25;5.93;;;4.07;;
24102;SDS011;12278;53.058;9.028;2022-12-20T03:16:26;9.13;;;5.00;;
24102;SDS011;12278;53.058;9.028;2022-12-20T03:20:27;5.00;;;4.27;;
24102;SDS011;12278;53.058;9.028;2022-12-20T03:24:27;5.00;;;4.40;;
24102;SDS011;12278;53.058;9.028;2022-12-20T03:28:28;5.57;;;4.97;;
24102;SDS011;12278;53.058;9.028;2022-12-20T03:32:29;7.90;;;6.40;;
24102;SDS011;12278;53.058;9.028;2022-12-20T03:36:29;8.50;;;5.00;;
24102;SDS011;12278;53.058;9.028;2022-12-20T03:40:30;7.10;;;5.00;;
24102;SDS011;12278;53.058;9.028;2022-12-20T03:44:30;5.90;;;4.80;;
24102;SDS011;12278;53.058;9.028;2022-12-20T03:48:31;6.57;;;5.07;;
24102;SDS011;12278;53.058;9.028;2022-12-20T03:52:32;7.78;;;4.47;;
24102;SDS011;12278;53.058;9.028;2022-12-20T03:56:32;6.07;;;5.20;;
24102;SDS011;12278;53.058;9.028;2022-12-20T04:00:33;8.00;;;5.00;;
24102;SDS011;12278;53.058;9.028;2022-12-20T04:04:34;7.35;;;5.00;;
24102;SDS011;12278;53.058;9.028;2022-12-20T04:08:36;7.25;;;5.22;;
24102;SDS011;12278;53.058;9.028;2022-12-20T04:12:37;6.13;;;5.00;;
24102;SDS011;12278;53.058;9.028;2022-12-20T04:16:40;6.78;;;4.63;;
24102;SDS011;12278;53.058;9.028;2022-12-20T04:20:40;4.73;;;4.33;;
24102;SDS011;12278;53.058;9.028;2022-12-20T04:24:41;5.93;;;4.68;;
24102;SDS011;12278;53.058;9.028;2022-12-20T04:28:41;7.53;;;5.47;;
24102;SDS011;12278;53.058;9.028;2022-12-20T04:32:42;6.83;;;4.93;;
24102;SDS011;12278;53.058;9.028;2022-12-20T04:36:43;9.40;;;5.18;;
24102;SDS011;12278;53.058;9.028;2022-12-20T04:40:43;5.40;;;4.33;;
24102;SDS011;12278;53.058;9.028;2022-12-20T04:44:44;6.88;;;4.28;;
24102;SDS011;12278;53.058;9.028;2022-12-20T04:48:45;7.78;;;4.75;;
24102;SDS011;12278;53.058;9.028;2022-12-20T04:52:47;5.03;;;4.53;;
24102;SDS011;12278;53.058;9.028;2022-12-20T04:57:06;5.68;;;4.82;;
24102;SDS011;12278;53.058;9.028;2022-12-20T05:01:09;6.07;;;4.40;;
24102;SDS011;12278;53.058;9.028;2022-12-20T05:05:10;7.00;;;4.72;;
24102;SDS011;12278;53.058;9.028;2022-12-20T05:09:11;5.32;;;4.20;;
24102;SDS011;12278;53.058;9.028;2022-12-20T05:13:20;5.70;;;4.63;;
24102;SDS011;12278;53.058;9.028;2022-12-20T05:17:23;10.55;;;4.72;;
24102;SDS011;12278;53.058;9.028;2022-12-20T05:21:24;5.95;;;4.30;;
24102;SDS011;12278;53.058;9.028;2022-12-20T05:25:44;5.53;;;4.57;;
24102;SDS011;12278;53.058;9.028;2022-12-20T05:30:06;5.78;;;3.88;;
24102;SDS011;12278;53.058;9.028;2022-12-20T05:34:07;3.85;;;3.45;;
24102;SDS011;12278;53.058;9.028;2022-12-20T05:42:13;5.63;;;3.83;;
24102;SDS011;12278;53.058;9.028;2022-12-20T05:46:13;6.10;;;4.63;;
24102;SDS011;12278;53.058;9.028;2022-12-20T05:50:14;9.18;;;5.47;;
24102;SDS011;12278;53.058;9.028;2022-12-20T05:54:16;9.77;;;5.03;;
24102;SDS011;12278;53.058;9.028;2022-12-20T05:58:16;6.78;;;5.15;;
24102;SDS011;12278;53.058;9.028;2022-12-20T06:02:17;5.93;;;4.00;;
24102;SDS011;12278;53.058;9.028;2022-12-20T06:06:18;5.20;;;4.63;;
24102;SDS011;12278;53.058;9.028;2022-12-20T06:10:19;5.15;;;4.18;;
24102;SDS011;12278;53.058;9.028;2022-12-20T06:14:19;6.07;;;4.07;;
24102;SDS011;12278;53.058;9.028;2022-12-20T06:18:20;7.75;;;4.30;;
24102;SDS011;12278;53.058;9.028;2022-12-20T06:22:21;5.28;;;4.10;;
24102;SDS011;12278;53.058;9.028;2022-12-20T06:26:22;6.53;;;5.13;;
24102;SDS011;12278;53.058;9.028;2022-12-20T06:30:23;5.45;;;4.93;;
24102;SDS011;12278;53.058;9.028;2022-12-20T06:34:24;7.97;;;5.57;;
24102;SDS011;12278;53.058;9.028;2022-12-20T06:38:24;8.40;;;6.90;;
24102;SDS011;12278;53.058;9.028;2022-12-20T06:42:26;6.72;;;5.57;;
24102;SDS011;12278;53.058;9.028;2022-12-20T06:46:27;6.07;;;4.65;;
24102;SDS011;12278;53.058;9.028;2022-12-20T06:50:27;4.97;;;4.47;;
24102;SDS011;12278;53.058;9.028;2022-12-20T06:54:28;6.35;;;5.45;;
24102;SDS011;12278;53.058;9.028;2022-12-20T06:58:29;5.80;;;4.85;;
24102;SDS011;12278;53.058;9.028;2022-12-20T07:02:29;6.47;;;5.25;;
24102;SDS011;12278;53.058;9.028;2022-12-20T07:06:30;9.32;;;5.53;;
24102;SDS011;12278;53.058;9.028;2022-12-20T07:10:34;9.13;;;5.25;;
24102;SDS011;12278;53.058;9.028;2022-12-20T07:14:36;5.68;;;4.63;;
24102;SDS011;12278;53.058;9.028;2022-12-20T07:18:37;5.97;;;4.60;;
24102;SDS011;12278;53.058;9.028;2022-12-20T07:22:37;6.53;;;5.20;;
24102;SDS011;12278;53.058;9.028;2022-12-20T07:26:38;5.38;;;4.78;;
24102;SDS011;12278;53.058;9.028;2022-12-20T07:30:38;9.05;;;5.38;;
24102;SDS011;12278;53.058;9.028;2022-12-20T07:34:39;6.47;;;5.10;;
24102;SDS011;12278;53.058;9.028;2022-12-20T07:38:40;8.15;;;5.10;;
24102;SDS011;12278;53.058;9.028;2022-12-20T07:42:41;6.00;;;4.90;;
24102;SDS011;12278;53.058;9.028;2022-12-20T07:46:41;6.78;;;4.97;;
24102;SDS011;12278;53.058;9.028;2022-12-20T07:50:42;6.82;;;4.93;;
24102;SDS011;12278;53.058;9.028;2022-12-20T07:54:44;6.20;;;4.15;;
24102;SDS011;12278;53.058;9.028;2022-12-20T07:58:49;6.80;;;5.35;;
24102;SDS011;12278;53.058;9.028;2022-12-20T08:07:00;7.82;;;4.60;;
24102;SDS011;12278;53.058;9.028;2022-12-20T08:11:02;7.65;;;4.95;;
24102;SDS011;12278;53.058;9.028;2022-12-20T08:15:05;8.93;;;4.88;;
24102;SDS011;12278;53.058;9.028;2022-12-20T08:19:06;6.32;;;4.85;;
24102;SDS011;12278;53.058;9.028;2022-12-20T08:23:07;6.72;;;5.10;;
24102;SDS011;12278;53.058;9.028;2022-12-20T08:27:08;6.10;;;4.93;;
24102;SDS011;12278;53.058;9.028;2022-12-20T08:31:08;6.10;;;5.00;;
24102;SDS011;12278;53.058;9.028;2022-12-20T08:35:11;8.02;;;5.30;;
24102;SDS011;12278;53.058;9.028;2022-12-20T08:39:12;6.07;;;5.13;;
24102;SDS011;12278;53.058;9.028;2022-12-20T08:43:13;7.30;;;5.55;;
24102;SDS011;12278;53.058;9.028;2022-12-20T08:47:13;6.70;;;4.82;;
24102;SDS011;12278;53.058;9.028;2022-12-20T08:51:14;6.75;;;4.68;;
24102;SDS011;12278;53.058;9.028;2022-12-20T08:55:15;7.28;;;4.85;;
24102;SDS011;12278;53.058;9.028;2022-12-20T08:59:16;6.82;;;5.40;;
24102;SDS011;12278;53.058;9.028;2022-12-20T09:03:16;6.97;;;5.10;;
24102;SDS011;12278;53.058;9.028;2022-12-20T09:07:17;5.03;;;4.63;;
24102;SDS011;12278;53.058;9.028;2022-12-20T09:11:19;6.35;;;5.15;;
24102;SDS011;12278;53.058;9.028;2022-12-20T09:15:21;5.15;;;4.53;;
24102;SDS011;12278;53.058;9.028;2022-12-20T09:19:22;6.22;;;5.20;;
24102;SDS011;12278;53.058;9.028;2022-12-20T09:23:22;6.45;;;4.90;;
24102;SDS011;12278;53.058;9.028;2022-12-20T09:27:23;6.57;;;5.10;;
24102;SDS011;12278;53.058;9.028;2022-12-20T09:31:24;7.13;;;5.20;;
24102;SDS011;12278;53.058;9.028;2022-12-20T09:35:25;8.05;;;5.20;;
24102;SDS011;12278;53.058;9.028;2022-12-20T09:39:26;6.55;;;4.63;;
24102;SDS011;12278;53.058;9.028;2022-12-20T09:43:27;6.50;;;4.47;;
24102;SDS011;12278;53.058;9.028;2022-12-20T09:47:27;5.68;;;4.72;;
24102;SDS011;12278;53.058;9.028;2022-12-20T09:56:06;5.38;;;4.15;;
24102;SDS011;12278;53.058;9.028;2022-12-20T10:00:15;6.05;;;4.78;;
24102;SDS011;12278;53.058;9.028;2022-12-20T10:17:15;6.80;;;4.72;;
24102;SDS011;12278;53.058;9.028;2022-12-20T10:25:49;11.98;;;4.68;;
24102;SDS011;12278;53.058;9.028;2022-12-20T10:29:51;6.35;;;4.68;;
24102;SDS011;12278;53.058;9.028;2022-12-20T10:33:52;5.10;;;4.45;;
24102;SDS011;12278;53.058;9.028;2022-12-20T10:42:01;7.60;;;4.80;;
24102;SDS011;12278;53.058;9.028;2022-12-20T10:46:03;8.32;;;5.65;;
24102;SDS011;12278;53.058;9.028;2022-12-20T10:50:07;6.57;;;4.25;;
24102;SDS011;12278;53.058;9.028;2022-12-20T10:54:24;6.28;;;4.90;;
24102;SDS011;12278;53.058;9.028;2022-12-20T10:58:31;7.53;;;5.07;;
24102;SDS011;12278;53.058;9.028;2022-12-20T11:02:35;8.88;;;5.25;;
24102;SDS011;12278;53.058;9.028;2022-12-20T11:06:39;6.18;;;4.65;;
24102;SDS011;12278;53.058;9.028;2022-12-20T11:10:42;4.47;;;4.07;;
24102;SDS011;12278;53.058;9.028;2022-12-20T11:14:44;6.03;;;3.72;;
24102;SDS011;12278;53.058;9.028;2022-12-20T11:18:49;5.47;;;4.07;;
24102;SDS011;12278;53.058;9.028;2022-12-20T11:52:41;5.68;;;5.03;;
24102;SDS011;12278;53.058;9.028;2022-12-20T11:56:51;9.05;;;5.00;;
24102;SDS011;12278;53.058;9.028;2022-12-20T12:01:00;6.88;;;5.03;;
24102;SDS011;12278;53.058;9.028;2022-12-20T12:05:06;8.38;;;4.63;;
24102;SDS011;12278;53.058;9.028;2022-12-20T12:09:28;6.22;;;4.45;;
24102;SDS011;12278;53.058;9.028;2022-12-20T12:13:35;6.10;;;4.55;;
24102;SDS011;12278;53.058;9.028;2022-12-20T12:21:48;6.72;;;5.07;;
24102;SDS011;12278;53.058;9.028;2022-12-20T12:25:54;6.00;;;5.03;;
24102;SDS011;12278;53.058;9.028;2022-12-20T12:30:00;6.95;;;5.30;;
24102;SDS011;12278;53.058;9.028;2022-12-20T12:34:06;7.18;;;5.13;;
24102;SDS011;12278;53.058;9.028;2022-12-20T12:38:32;8.75;;;4.95;;
24102;SDS011;12278;53.058;9.028;2022-12-20T12:47:14;7.82;;;4.97;;
24102;SDS011;12278;53.058;9.028;2022-12-20T12:51:23;7.78;;;5.28;;
24102;SDS011;12278;53.058;9.028;2022-12-20T12:55:40;5.85;;;5.18;;
24102;SDS011;12278;53.058;9.028;2022-12-20T12:59:51;7.95;;;5.88;;
24102;SDS011;12278;53.058;9.028;2022-12-20T13:07:52;5.68;;;5.00;;
24102;SDS011;12278;53.058;9.028;2022-12-20T13:11:54;6.85;;;4.50;;
24102;SDS011;12278;53.058;9.028;2022-12-20T13:16:03;5.28;;;3.97;;
24102;SDS011;12278;53.058;9.028;2022-12-20T13:20:14;5.75;;;3.38;;
24102;SDS011;12278;53.058;9.028;2022-12-20T13:28:55;4.78;;;3.88;;
24102;SDS011;12278;53.058;9.028;2022-12-20T13:33:48;4.95;;;4.32;;
24102;SDS011;12278;53.058;9.028;2022-12-20T13:37:51;6.25;;;3.78;;
24102;SDS011;12278;53.058;9.028;2022-12-20T13:42:13;6.60;;;4.20;;
24102;SDS011;12278;53.058;9.028;2022-12-20T13:50:50;6.05;;;4.20;;
24102;SDS011;12278;53.058;9.028;2022-12-20T13:54:53;6.07;;;4.45;;
24102;SDS011;12278;53.058;9.028;2022-12-20T13:58:58;8.75;;;5.55;;
24102;SDS011;12278;53.058;9.028;2022-12-20T14:03:06;6.65;;;4.28;;
24102;SDS011;12278;53.058;9.028;2022-12-20T14:07:16;4.43;;;4.03;;
24102;SDS011;12278;53.058;9.028;2022-12-20T14:11:22;7.05;;;4.68;;
24102;SDS011;12278;53.058;9.028;2022-12-20T14:19:27;5.22;;;4.53;;
24102;SDS011;12278;53.058;9.028;2022-12-20T14:23:33;5.80;;;4.32;;
24102;SDS011;12278;53.058;9.028;2022-12-20T14:27:35;5.82;;;4.60;;
24102;SDS011;12278;53.058;9.028;2022-12-20T14:31:39;5.85;;;4.20;;
24102;SDS011;12278;53.058;9.028;2022-12-20T14:35:45;5.72;;;4.68;;
24102;SDS011;12278;53.058;9.028;2022-12-20T14:39:54;6.85;;;4.68;;
24102;SDS011;12278;53.058;9.028;2022-12-20T14:43:56;7.20;;;4.93;;
24102;SDS011;12278;53.058;9.028;2022-12-20T14:56:13;5.88;;;4.68;;
24102;SDS011;12278;53.058;9.028;2022-12-20T15:04:21;6.00;;;4.53;;
24102;SDS011;12278;53.058;9.028;2022-12-20T15:08:27;4.60;;;3.80;;
24102;SDS011;12278;53.058;9.028;2022-12-20T15:12:32;7.95;;;5.20;;
24102;SDS011;12278;53.058;9.028;2022-12-20T15:16:32;8.90;;;4.40;;
24102;SDS011;12278;53.058;9.028;2022-12-20T15:20:33;5.07;;;3.85;;
24102;SDS011;12278;53.058;9.028;2022-12-20T15:24:34;4.57;;;4.00;;
24102;SDS011;12278;53.058;9.028;2022-12-20T15:28:34;5.85;;;4.30;;
24102;SDS011;12278;53.058;9.028;2022-12-20T15:32:35;6.68;;;4.03;;
24102;SDS011;12278;53.058;9.028;2022-12-20T15:36:37;6.13;;;4.32;;
24102;SDS011;12278;53.058;9.028;2022-12-20T15:40:38;6.30;;;4.30;;
24102;SDS011;12278;53.058;9.028;2022-12-20T15:44:39;4.40;;;4.00;;
24102;SDS011;12278;53.058;9.028;2022-12-20T15:48:40;5.10;;;4.22;;
24102;SDS011;12278;53.058;9.028;2022-12-20T15:52:41;5.80;;;5.13;;
24102;SDS011;12278;53.058;9.028;2022-12-20T15:56:43;6.55;;;4.82;;
24102;SDS011;12278;53.058;9.028;2022-12-20T16:00:43;5.82;;;4.55;;
24102;SDS011;12278;53.058;9.028;2022-12-20T16:04:44;7.45;;;5.03;;
24102;SDS011;12278;53.058;9.028;2022-12-20T16:08:45;6.82;;;5.10;;
24102;SDS011;12278;53.058;9.028;2022-12-20T16:12:45;5.13;;;4.60;;
24102;SDS011;12278;53.058;9.028;2022-12-20T16:16:46;12.68;;;5.72;;
24102;SDS011;12278;53.058;9.028;2022-12-20T16:20:50;6.47;;;4.28;;
24102;SDS011;12278;53.058;9.028;2022-12-20T16:24:50;6.82;;;5.10;;
24102;SDS011;12278;53.058;9.028;2022-12-20T16:28:52;7.32;;;4.97;;
24102;SDS011;12278;53.058;9.028;2022-12-20T16:32:53;6.95;;;4.88;;
24102;SDS011;12278;53.058;9.028;2022-12-20T16:36:54;8.10;;;5.85;;
24102;SDS011;12278;53.058;9.028;2022-12-20T16:40:54;5.05;;;4.47;;
24102;SDS011;12278;53.058;9.028;2022-12-20T16:44:59;5.28;;;4.25;;
24102;SDS011;12278;53.058;9.028;2022-12-20T16:49:00;6.25;;;5.05;;
24102;SDS011;12278;53.058;9.028;2022-12-20T16:53:01;5.70;;;4.80;;
24102;SDS011;12278;53.058;9.028;2022-12-20T16:57:05;6.30;;;5.00;;
24102;SDS011;12278;53.058;9.028;2022-12-20T17:01:07;6.95;;;5.80;;
24102;SDS011;12278;53.058;9.028;2022-12-20T17:05:29;7.47;;;5.50;;
24102;SDS011;12278;53.058;9.028;2022-12-20T17:09:32;8.65;;;6.28;;
24102;SDS011;12278;53.058;9.028;2022-12-20T17:13:32;9.20;;;6.30;;
24102;SDS011;12278;53.058;9.028;2022-12-20T17:17:33;6.95;;;5.30;;
24102;SDS011;12278;53.058;9.028;2022-12-20T17:21:35;8.65;;;5.30;;
24102;SDS011;12278;53.058;9.028;2022-12-20T17:25:41;8.65;;;6.00;;
24102;SDS011;12278;53.058;9.028;2022-12-20T17:29:42;9.98;;;5.43;;
24102;SDS011;12278;53.058;9.028;2022-12-20T17:33:42;5.90;;;5.28;;
24102;SDS011;12278;53.058;9.028;2022-12-20T17:37:43;9.63;;;6.88;;
24102;SDS011;12278;53.058;9.028;2022-12-20T17:41:45;7.32;;;5.32;;
24102;SDS011;12278;53.058;9.028;2022-12-20T17:45:46;7.53;;;6.72;;
24102;SDS011;12278;53.058;9.028;2022-12-20T17:49:47;8.73;;;6.60;;
24102;SDS011;12278;53.058;9.028;2022-12-20T17:53:49;7.55;;;5.68;;
24102;SDS011;12278;53.058;9.028;2022-12-20T17:57:53;11.07;;;7.10;;
24102;SDS011;12278;53.058;9.028;2022-12-20T18:01:54;9.20;;;6.50;;
24102;SDS011;12278;53.058;9.028;2022-12-20T18:05:54;12.98;;;7.28;;
24102;SDS011;12278;53.058;9.028;2022-12-20T18:09:55;9.52;;;7.75;;
24102;SDS011;12278;53.058;9.028;2022-12-20T18:13:56;11.27;;;7.88;;
24102;SDS011;12278;53.058;9.028;2022-12-20T18:17:58;10.07;;;6.85;;
24102;SDS011;12278;53.058;9.028;2022-12-20T18:21:59;9.50;;;7.30;;
24102;SDS011;12278;53.058;9.028;2022-12-20T18:26:10;10.60;;;7.60;;
24102;SDS011;12278;53.058;9.028;2022-12-20T18:30:13;11.00;;;8.70;;
24102;SDS011;12278;53.058;9.028;2022-12-20T18:34:14;14.13;;;8.93;;
24102;SDS011;12278;53.058;9.028;2022-12-20T18:38:14;11.52;;;8.55;;
24102;SDS011;12278;53.058;9.028;2022-12-20T18:42:15;11.00;;;8.88;;
24102;SDS011;12278;53.058;9.028;2022-12-20T18:46:17;14.98;;;9.35;;
24102;SDS011;12278;53.058;9.028;2022-12-20T18:50:19;14.27;;;9.27;;
24102;SDS011;12278;53.058;9.028;2022-12-20T18:54:21;11.57;;;9.57;;
24102;SDS011;12278;53.058;9.028;2022-12-20T18:58:21;16.50;;;9.52;;
24102;SDS011;12278;53.058;9.028;2022-12-20T19:02:22;17.83;;;12.15;;
24102;SDS011;12278;53.058;9.028;2022-12-20T19:06:23;17.80;;;12.00;;
24102;SDS011;12278;53.058;9.028;2022-12-20T19:10:24;14.55;;;11.18;;
24102;SDS011;12278;53.058;9.028;2022-12-20T19:14:25;17.17;;;11.60;;
24102;SDS011;12278;53.058;9.028;2022-12-20T19:18:25;15.10;;;12.25;;
24102;SDS011;12278;53.058;9.028;2022-12-20T19:22:26;15.23;;;11.82;;
24102;SDS011;12278;53.058;9.028;2022-12-20T19:26:27;16.88;;;12.27;;
24102;SDS011;12278;53.058;9.028;2022-12-20T19:30:28;20.23;;;14.57;;
24102;SDS011;12278;53.058;9.028;2022-12-20T19:34:29;20.45;;;14.20;;
24102;SDS011;12278;53.058;9.028;2022-12-20T19:38:30;16.90;;;13.60;;
24102;SDS011;12278;53.058;9.028;2022-12-20T19:42:31;17.67;;;13.55;;
24102;SDS011;12278;53.058;9.028;2022-12-20T19:46:32;18.45;;;14.57;;
24102;SDS011;12278;53.058;9.028;2022-12-20T19:50:32;18.92;;;15.25;;
24102;SDS011;12278;53.058;9.028;2022-12-20T19:54:33;19.50;;;15.23;;
24102;SDS011;12278;53.058;9.028;2022-12-20T19:58:34;19.90;;;15.32;;
24102;SDS011;12278;53.058;9.028;2022-12-20T20:02:35;19.05;;;15.02;;
24102;SDS011;12278;53.058;9.028;2022-12-20T20:06:36;21.88;;;16.52;;
24102;SDS011;12278;53.058;9.028;2022-12-20T20:10:38;22.45;;;15.55;;
24102;SDS011;12278;53.058;9.028;2022-12-20T20:18:45;21.60;;;15.88;;
24102;SDS011;12278;53.058;9.028;2022-12-20T20:22:49;22.40;;;16.30;;
24102;SDS011;12278;53.058;9.028;2022-12-20T20:26:50;20.08;;;15.02;;
24102;SDS011;12278;53.058;9.028;2022-12-20T20:30:51;22.98;;;16.95;;
24102;SDS011;12278;53.058;9.028;2022-12-20T20:34:53;23.73;;;17.45;;
24102;SDS011;12278;53.058;9.028;2022-12-20T20:38:53;23.17;;;17.67;;
24102;SDS011;12278;53.058;9.028;2022-12-20T20:42:55;20.02;;;15.32;;
24102;SDS011;12278;53.058;9.028;2022-12-20T20:46:55;23.45;;;18.13;;
24102;SDS011;12278;53.058;9.028;2022-12-20T20:50:56;23.95;;;19.23;;
24102;SDS011;12278;53.058;9.028;2022-12-20T20:54:57;29.40;;;21.15;;
24102;SDS011;12278;53.058;9.028;2022-12-20T20:58:58;28.60;;;20.33;;
24102;SDS011;12278;53.058;9.028;2022-12-20T21:02:58;26.00;;;19.02;;
24102;SDS011;12278;53.058;9.028;2022-12-20T21:06:59;25.58;;;20.13;;
24102;SDS011;12278;53.058;9.028;2022-12-20T21:11:06;26.20;;;20.60;;
24102;SDS011;12278;53.058;9.028;2022-12-20T21:15:07;28.17;;;19.67;;
24102;SDS011;12278;53.058;9.028;2022-12-20T21:19:08;28.67;;;20.00;;
24102;SDS011;12278;53.058;9.028;2022-12-20T21:23:10;27.90;;;19.55;;
24102;SDS011;12278;53.058;9.028;2022-12-20T21:27:12;32.92;;;21.23;;
24102;SDS011;12278;53.058;9.028;2022-12-20T21:31:14;26.80;;;19.70;;
24102;SDS011;12278;53.058;9.028;2022-12-20T21:35:16;31.90;;;21.95;;
24102;SDS011;12278;53.058;9.028;2022-12-20T21:39:16;36.40;;;20.00;;
24102;SDS011;12278;53.058;9.028;2022-12-20T21:43:17;26.10;;;20.35;;
24102;SDS011;12278;53.058;9.028;2022-12-20T21:47:18;29.25;;;19.63;;
24102;SDS011;12278;53.058;9.028;2022-12-20T21:51:20;28.65;;;20.27;;
24102;SDS011;12278;53.058;9.028;2022-12-20T21:55:22;29.67;;;19.95;;
24102;SDS011;12278;53.058;9.028;2022-12-20T21:59:24;30.60;;;21.20;;
24102;SDS011;12278;53.058;9.028;2022-12-20T22:03:27;27.45;;;20.02;;
24102;SDS011;12278;53.058;9.028;2022-12-20T22:07:27;33.13;;;22.67;;
24102;SDS011;12278;53.058;9.028;2022-12-20T22:11:28;30.42;;;20.55;;
24102;SDS011;12278;53.058;9.028;2022-12-20T22:15:31;27.67;;;20.17;;
24102;SDS011;12278;53.058;9.028;2022-12-20T22:19:32;29.48;;;20.95;;
24102;SDS011;12278;53.058;9.028;2022-12-20T22:23:33;34.20;;;21.90;;
24102;SDS011;12278;53.058;9.028;2022-12-20T22:27:34;31.23;;;21.02;;
24102;SDS011;12278;53.058;9.028;2022-12-20T22:31:35;32.58;;;20.27;;
24102;SDS011;12278;53.058;9.028;2022-12-20T22:35:35;29.63;;;21.42;;
24102;SDS011;12278;53.058;9.028;2022-12-20T22:39:36;33.83;;;20.60;;
24102;SDS011;12278;53.058;9.028;2022-12-20T22:43:37;30.73;;;20.38;;
24102;SDS011;12278;53.058;9.028;2022-12-20T22:47:39;32.72;;;20.35;;
24102;SDS011;12278;53.058;9.028;2022-12-20T22:51:41;31.45;;;21.27;;
24102;SDS011;12278;53.058;9.028;2022-12-20T22:55:45;29.33;;;20.20;;
24102;SDS011;12278;53.058;9.028;2022-12-20T22:59:51;29.17;;;20.33;;
24102;SDS011;12278;53.058;9.028;2022-12-20T23:03:52;28.45;;;19.98;;
24102;SDS011;12278;53.058;9.028;2022-12-20T23:07:52;27.65;;;20.38;;
24102;SDS011;12278;53.058;9.028;2022-12-20T23:11:53;27.23;;;19.52;;
24102;SDS011;12278;53.058;9.028;2022-12-20T23:16:12;27.77;;;20.52;;
24102;SDS011;12278;53.058;9.028;2022-12-20T23:20:13;29.42;;;20.83;;
24102;SDS011;12278;53.058;9.028;2022-12-20T23:24:32;27.85;;;19.33;;
24102;SDS011;12278;53.058;9.028;2022-12-20T23:28:32;31.60;;;21.45;;
24102;SDS011;12278;53.058;9.028;2022-12-20T23:32:33;28.27;;;19.73;;
24102;SDS011;12278;53.058;9.028;2022-12-20T23:36:34;29.25;;;19.92;;
24102;SDS011;12278;53.058;9.028;2022-12-20T23:40:38;28.80;;;20.40;;
24102;SDS011;12278;53.058;9.028;2022-12-20T23:44:39;31.67;;;20.42;;
24102;SDS011;12278;53.058;9.028;2022-12-20T23:48:40;30.17;;;21.65;;
24102;SDS011;12278;53.058;9.028;2022-12-20T23:52:41;33.25;;;21.52;;
24102;SDS011;12278;53.058;9.028;2022-12-20T23:56:42;30.45;;;20.88;;
